sensor_id;sensor_type;location;lat;lon;timestamp;P1;durP1;ratioP1;P2;durP2;ratioP2
76552;SDS011;65395;53.168;18.156;2024-03-02T00:00:50;78.50;;;34.40;;
76552;SDS011;65395;53.168;18.156;2024-03-02T00:03:38;76.70;;;33.20;;
76552;SDS011;65395;53.168;18.156;2024-03-02T00:06:04;75.70;;;33.20;;
76552;SDS011;65395;53.168;18.156;2024-03-02T00:08:33;77.40;;;32.60;;
76552;SDS011;65395;53.168;18.156;2024-03-02T00:11:00;81.90;;;34.30;;
76552;SDS011;65395;53.168;18.156;2024-03-02T00:13:29;72.50;;;32.80;;
76552;SDS011;65395;53.168;18.156;2024-03-02T00:15:58;76.00;;;33.60;;
76552;SDS011;65395;53.168;18.156;2024-03-02T00:18:26;73.70;;;32.40;;
76552;SDS011;65395;53.168;18.156;2024-03-02T00:20:56;78.00;;;33.60;;
76552;SDS011;65395;53.168;18.156;2024-03-02T00:23:24;71.70;;;32.50;;
76552;SDS011;65395;53.168;18.156;2024-03-02T00:25:55;78.20;;;34.50;;
76552;SDS011;65395;53.168;18.156;2024-03-02T00:28:24;74.00;;;33.20;;
76552;SDS011;65395;53.168;18.156;2024-03-02T00:31:03;71.20;;;33.50;;
76552;SDS011;65395;53.168;18.156;2024-03-02T00:33:32;72.90;;;32.80;;
76552;SDS011;65395;53.168;18.156;2024-03-02T00:36:02;75.30;;;33.60;;
76552;SDS011;65395;53.168;18.156;2024-03-02T00:38:30;70.80;;;31.90;;
76552;SDS011;65395;53.168;18.156;2024-03-02T00:40:58;70.30;;;31.60;;
76552;SDS011;65395;53.168;18.156;2024-03-02T00:46:23;75.10;;;33.00;;
76552;SDS011;65395;53.168;18.156;2024-03-02T00:48:54;72.60;;;31.90;;
76552;SDS011;65395;53.168;18.156;2024-03-02T00:51:24;74.60;;;31.80;;
76552;SDS011;65395;53.168;18.156;2024-03-02T00:53:53;70.80;;;31.10;;
76552;SDS011;65395;53.168;18.156;2024-03-02T00:56:23;67.90;;;31.00;;
76552;SDS011;65395;53.168;18.156;2024-03-02T00:58:51;67.60;;;32.20;;
76552;SDS011;65395;53.168;18.156;2024-03-02T01:01:18;67.80;;;32.20;;
76552;SDS011;65395;53.168;18.156;2024-03-02T01:03:46;68.30;;;30.90;;
76552;SDS011;65395;53.168;18.156;2024-03-02T01:06:13;72.10;;;30.90;;
76552;SDS011;65395;53.168;18.156;2024-03-02T01:08:41;71.50;;;31.70;;
76552;SDS011;65395;53.168;18.156;2024-03-02T01:11:08;69.40;;;32.20;;
76552;SDS011;65395;53.168;18.156;2024-03-02T01:13:35;65.40;;;30.30;;
76552;SDS011;65395;53.168;18.156;2024-03-02T01:16:03;65.80;;;31.20;;
76552;SDS011;65395;53.168;18.156;2024-03-02T01:18:30;69.60;;;29.60;;
76552;SDS011;65395;53.168;18.156;2024-03-02T01:20:57;61.10;;;29.00;;
76552;SDS011;65395;53.168;18.156;2024-03-02T01:23:24;62.80;;;29.50;;
76552;SDS011;65395;53.168;18.156;2024-03-02T01:25:51;63.80;;;29.90;;
76552;SDS011;65395;53.168;18.156;2024-03-02T01:28:19;65.50;;;30.20;;
76552;SDS011;65395;53.168;18.156;2024-03-02T01:30:47;60.90;;;29.40;;
76552;SDS011;65395;53.168;18.156;2024-03-02T01:33:14;64.40;;;28.90;;
76552;SDS011;65395;53.168;18.156;2024-03-02T01:35:42;65.60;;;28.50;;
76552;SDS011;65395;53.168;18.156;2024-03-02T01:38:09;62.90;;;28.70;;
76552;SDS011;65395;53.168;18.156;2024-03-02T01:40:36;59.80;;;28.30;;
76552;SDS011;65395;53.168;18.156;2024-03-02T01:43:05;67.40;;;28.90;;
76552;SDS011;65395;53.168;18.156;2024-03-02T01:45:32;59.80;;;29.30;;
76552;SDS011;65395;53.168;18.156;2024-03-02T01:47:59;65.40;;;30.80;;
76552;SDS011;65395;53.168;18.156;2024-03-02T01:50:28;59.80;;;28.00;;
76552;SDS011;65395;53.168;18.156;2024-03-02T01:52:56;60.70;;;27.60;;
76552;SDS011;65395;53.168;18.156;2024-03-02T01:55:23;58.30;;;28.00;;
76552;SDS011;65395;53.168;18.156;2024-03-02T01:57:51;55.20;;;26.90;;
76552;SDS011;65395;53.168;18.156;2024-03-02T02:00:19;62.80;;;29.10;;
76552;SDS011;65395;53.168;18.156;2024-03-02T02:02:48;63.40;;;29.40;;
76552;SDS011;65395;53.168;18.156;2024-03-02T02:05:16;57.60;;;28.20;;
76552;SDS011;65395;53.168;18.156;2024-03-02T02:07:43;56.70;;;26.90;;
76552;SDS011;65395;53.168;18.156;2024-03-02T02:10:11;52.40;;;26.10;;
76552;SDS011;65395;53.168;18.156;2024-03-02T02:12:38;56.70;;;26.30;;
76552;SDS011;65395;53.168;18.156;2024-03-02T02:17:50;53.40;;;26.10;;
76552;SDS011;65395;53.168;18.156;2024-03-02T02:20:17;56.70;;;27.60;;
76552;SDS011;65395;53.168;18.156;2024-03-02T02:25:24;58.20;;;26.30;;
76552;SDS011;65395;53.168;18.156;2024-03-02T02:27:51;57.00;;;26.50;;
76552;SDS011;65395;53.168;18.156;2024-03-02T02:30:19;54.60;;;27.10;;
76552;SDS011;65395;53.168;18.156;2024-03-02T02:32:48;53.30;;;25.10;;
76552;SDS011;65395;53.168;18.156;2024-03-02T02:35:15;49.00;;;24.80;;
76552;SDS011;65395;53.168;18.156;2024-03-02T02:37:42;50.90;;;24.20;;
76552;SDS011;65395;53.168;18.156;2024-03-02T02:40:12;52.90;;;25.30;;
76552;SDS011;65395;53.168;18.156;2024-03-02T02:42:39;53.20;;;24.60;;
76552;SDS011;65395;53.168;18.156;2024-03-02T02:45:06;51.90;;;24.50;;
76552;SDS011;65395;53.168;18.156;2024-03-02T02:47:34;49.10;;;24.00;;
76552;SDS011;65395;53.168;18.156;2024-03-02T02:50:02;51.30;;;24.90;;
76552;SDS011;65395;53.168;18.156;2024-03-02T02:52:31;49.50;;;24.40;;
76552;SDS011;65395;53.168;18.156;2024-03-02T02:55:00;53.90;;;25.60;;
76552;SDS011;65395;53.168;18.156;2024-03-02T02:57:27;50.30;;;25.70;;
76552;SDS011;65395;53.168;18.156;2024-03-02T02:59:56;50.40;;;25.20;;
76552;SDS011;65395;53.168;18.156;2024-03-02T03:02:23;47.00;;;22.60;;
76552;SDS011;65395;53.168;18.156;2024-03-02T03:04:50;47.90;;;24.00;;
76552;SDS011;65395;53.168;18.156;2024-03-02T03:07:17;46.00;;;23.10;;
76552;SDS011;65395;53.168;18.156;2024-03-02T03:09:44;48.10;;;24.10;;
76552;SDS011;65395;53.168;18.156;2024-03-02T03:12:11;47.50;;;23.70;;
76552;SDS011;65395;53.168;18.156;2024-03-02T03:14:39;46.20;;;22.70;;
76552;SDS011;65395;53.168;18.156;2024-03-02T03:17:07;48.50;;;23.00;;
76552;SDS011;65395;53.168;18.156;2024-03-02T03:19:34;46.00;;;23.20;;
76552;SDS011;65395;53.168;18.156;2024-03-02T03:22:02;43.30;;;22.50;;
76552;SDS011;65395;53.168;18.156;2024-03-02T03:24:29;50.00;;;23.70;;
76552;SDS011;65395;53.168;18.156;2024-03-02T03:26:56;43.50;;;22.40;;
76552;SDS011;65395;53.168;18.156;2024-03-02T03:29:24;45.30;;;23.50;;
76552;SDS011;65395;53.168;18.156;2024-03-02T03:31:51;45.70;;;23.50;;
76552;SDS011;65395;53.168;18.156;2024-03-02T03:34:18;46.90;;;22.30;;
76552;SDS011;65395;53.168;18.156;2024-03-02T03:36:45;49.50;;;22.60;;
76552;SDS011;65395;53.168;18.156;2024-03-02T03:39:12;43.10;;;22.20;;
76552;SDS011;65395;53.168;18.156;2024-03-02T03:41:40;46.40;;;22.70;;
76552;SDS011;65395;53.168;18.156;2024-03-02T03:44:07;44.50;;;21.50;;
76552;SDS011;65395;53.168;18.156;2024-03-02T03:46:34;40.60;;;21.50;;
76552;SDS011;65395;53.168;18.156;2024-03-02T03:49:01;40.20;;;21.30;;
76552;SDS011;65395;53.168;18.156;2024-03-02T03:51:28;45.70;;;22.50;;
76552;SDS011;65395;53.168;18.156;2024-03-02T03:53:54;39.60;;;21.00;;
76552;SDS011;65395;53.168;18.156;2024-03-02T03:56:21;40.30;;;21.70;;
76552;SDS011;65395;53.168;18.156;2024-03-02T03:58:48;38.60;;;19.70;;
76552;SDS011;65395;53.168;18.156;2024-03-02T04:01:15;38.20;;;20.60;;
76552;SDS011;65395;53.168;18.156;2024-03-02T04:03:42;38.50;;;20.70;;
76552;SDS011;65395;53.168;18.156;2024-03-02T04:06:09;38.50;;;19.80;;
76552;SDS011;65395;53.168;18.156;2024-03-02T04:08:36;39.20;;;20.90;;
76552;SDS011;65395;53.168;18.156;2024-03-02T04:11:03;38.90;;;19.90;;
76552;SDS011;65395;53.168;18.156;2024-03-02T04:13:30;37.50;;;20.60;;
76552;SDS011;65395;53.168;18.156;2024-03-02T04:15:57;38.50;;;19.30;;
76552;SDS011;65395;53.168;18.156;2024-03-02T04:18:24;37.10;;;19.70;;
76552;SDS011;65395;53.168;18.156;2024-03-02T04:20:51;33.80;;;18.60;;
76552;SDS011;65395;53.168;18.156;2024-03-02T04:23:18;36.10;;;19.20;;
76552;SDS011;65395;53.168;18.156;2024-03-02T04:25:45;37.20;;;19.80;;
76552;SDS011;65395;53.168;18.156;2024-03-02T04:28:12;34.30;;;19.20;;
76552;SDS011;65395;53.168;18.156;2024-03-02T04:30:39;37.80;;;19.80;;
76552;SDS011;65395;53.168;18.156;2024-03-02T04:33:06;37.50;;;19.60;;
76552;SDS011;65395;53.168;18.156;2024-03-02T04:35:36;36.20;;;19.10;;
76552;SDS011;65395;53.168;18.156;2024-03-02T04:38:03;35.10;;;19.40;;
76552;SDS011;65395;53.168;18.156;2024-03-02T04:40:31;38.20;;;19.80;;
76552;SDS011;65395;53.168;18.156;2024-03-02T04:42:58;38.70;;;21.10;;
76552;SDS011;65395;53.168;18.156;2024-03-02T04:45:26;30.30;;;17.30;;
76552;SDS011;65395;53.168;18.156;2024-03-02T04:47:53;36.10;;;19.30;;
76552;SDS011;65395;53.168;18.156;2024-03-02T04:50:20;38.80;;;20.20;;
76552;SDS011;65395;53.168;18.156;2024-03-02T04:52:47;38.20;;;20.80;;
76552;SDS011;65395;53.168;18.156;2024-03-02T04:55:14;36.00;;;20.30;;
76552;SDS011;65395;53.168;18.156;2024-03-02T04:57:51;35.60;;;19.70;;
76552;SDS011;65395;53.168;18.156;2024-03-02T05:00:21;38.00;;;19.80;;
76552;SDS011;65395;53.168;18.156;2024-03-02T05:02:48;36.50;;;19.40;;
76552;SDS011;65395;53.168;18.156;2024-03-02T05:05:15;39.40;;;20.40;;
76552;SDS011;65395;53.168;18.156;2024-03-02T05:07:42;36.60;;;20.90;;
76552;SDS011;65395;53.168;18.156;2024-03-02T05:10:10;39.80;;;21.10;;
76552;SDS011;65395;53.168;18.156;2024-03-02T05:12:38;37.60;;;21.00;;
76552;SDS011;65395;53.168;18.156;2024-03-02T05:15:23;35.10;;;19.80;;
76552;SDS011;65395;53.168;18.156;2024-03-02T05:17:50;39.70;;;20.50;;
76552;SDS011;65395;53.168;18.156;2024-03-02T05:20:17;40.10;;;20.70;;
76552;SDS011;65395;53.168;18.156;2024-03-02T05:22:44;40.30;;;21.10;;
76552;SDS011;65395;53.168;18.156;2024-03-02T05:25:11;35.80;;;19.80;;
76552;SDS011;65395;53.168;18.156;2024-03-02T05:27:38;38.50;;;20.20;;
76552;SDS011;65395;53.168;18.156;2024-03-02T05:30:05;35.20;;;18.80;;
76552;SDS011;65395;53.168;18.156;2024-03-02T05:32:33;35.60;;;20.00;;
76552;SDS011;65395;53.168;18.156;2024-03-02T05:35:01;38.70;;;20.00;;
76552;SDS011;65395;53.168;18.156;2024-03-02T05:37:29;35.10;;;20.30;;
76552;SDS011;65395;53.168;18.156;2024-03-02T05:39:56;36.10;;;18.90;;
76552;SDS011;65395;53.168;18.156;2024-03-02T05:42:23;37.30;;;20.00;;
76552;SDS011;65395;53.168;18.156;2024-03-02T05:44:49;37.50;;;20.60;;
76552;SDS011;65395;53.168;18.156;2024-03-02T05:47:16;37.00;;;20.50;;
76552;SDS011;65395;53.168;18.156;2024-03-02T05:49:43;36.00;;;20.10;;
76552;SDS011;65395;53.168;18.156;2024-03-02T05:52:11;38.60;;;20.70;;
76552;SDS011;65395;53.168;18.156;2024-03-02T05:54:38;36.20;;;20.40;;
76552;SDS011;65395;53.168;18.156;2024-03-02T05:57:05;33.80;;;19.20;;
76552;SDS011;65395;53.168;18.156;2024-03-02T05:59:42;35.50;;;20.40;;
76552;SDS011;65395;53.168;18.156;2024-03-02T06:02:11;37.20;;;20.70;;
76552;SDS011;65395;53.168;18.156;2024-03-02T06:04:37;39.30;;;20.50;;
76552;SDS011;65395;53.168;18.156;2024-03-02T06:07:04;37.60;;;20.20;;
76552;SDS011;65395;53.168;18.156;2024-03-02T06:09:31;37.30;;;20.20;;
76552;SDS011;65395;53.168;18.156;2024-03-02T06:11:58;37.50;;;21.00;;
76552;SDS011;65395;53.168;18.156;2024-03-02T06:14:25;38.70;;;21.00;;
76552;SDS011;65395;53.168;18.156;2024-03-02T06:16:52;38.40;;;20.80;;
76552;SDS011;65395;53.168;18.156;2024-03-02T06:19:19;36.00;;;20.50;;
76552;SDS011;65395;53.168;18.156;2024-03-02T06:21:46;37.40;;;20.50;;
76552;SDS011;65395;53.168;18.156;2024-03-02T06:24:13;38.80;;;20.90;;
76552;SDS011;65395;53.168;18.156;2024-03-02T06:26:39;35.20;;;19.60;;
76552;SDS011;65395;53.168;18.156;2024-03-02T06:29:06;37.30;;;20.40;;
76552;SDS011;65395;53.168;18.156;2024-03-02T06:31:34;38.50;;;22.50;;
76552;SDS011;65395;53.168;18.156;2024-03-02T06:34:01;37.20;;;19.80;;
76552;SDS011;65395;53.168;18.156;2024-03-02T06:36:29;34.30;;;19.80;;
76552;SDS011;65395;53.168;18.156;2024-03-02T06:38:56;40.10;;;19.50;;
76552;SDS011;65395;53.168;18.156;2024-03-02T06:41:23;39.30;;;20.30;;
76552;SDS011;65395;53.168;18.156;2024-03-02T06:43:50;37.10;;;20.60;;
76552;SDS011;65395;53.168;18.156;2024-03-02T06:46:25;37.30;;;20.50;;
76552;SDS011;65395;53.168;18.156;2024-03-02T06:48:52;38.40;;;21.10;;
76552;SDS011;65395;53.168;18.156;2024-03-02T06:51:19;36.50;;;20.30;;
76552;SDS011;65395;53.168;18.156;2024-03-02T06:53:46;40.60;;;20.50;;
76552;SDS011;65395;53.168;18.156;2024-03-02T06:56:13;38.20;;;20.40;;
76552;SDS011;65395;53.168;18.156;2024-03-02T06:58:40;38.70;;;20.70;;
76552;SDS011;65395;53.168;18.156;2024-03-02T07:01:07;38.50;;;21.00;;
76552;SDS011;65395;53.168;18.156;2024-03-02T07:03:34;37.90;;;20.10;;
76552;SDS011;65395;53.168;18.156;2024-03-02T07:06:01;35.90;;;20.50;;
76552;SDS011;65395;53.168;18.156;2024-03-02T07:08:28;36.10;;;20.10;;
76552;SDS011;65395;53.168;18.156;2024-03-02T07:10:54;39.50;;;20.40;;
76552;SDS011;65395;53.168;18.156;2024-03-02T07:13:22;34.30;;;19.50;;
76552;SDS011;65395;53.168;18.156;2024-03-02T07:15:49;37.60;;;21.30;;
76552;SDS011;65395;53.168;18.156;2024-03-02T07:18:36;37.00;;;20.30;;
76552;SDS011;65395;53.168;18.156;2024-03-02T07:21:07;39.60;;;20.80;;
76552;SDS011;65395;53.168;18.156;2024-03-02T07:23:34;36.00;;;20.60;;
76552;SDS011;65395;53.168;18.156;2024-03-02T07:26:01;41.10;;;20.50;;
76552;SDS011;65395;53.168;18.156;2024-03-02T07:28:28;34.70;;;19.30;;
76552;SDS011;65395;53.168;18.156;2024-03-02T07:30:59;35.50;;;19.80;;
76552;SDS011;65395;53.168;18.156;2024-03-02T07:33:27;36.70;;;20.60;;
76552;SDS011;65395;53.168;18.156;2024-03-02T07:35:54;36.30;;;20.30;;
76552;SDS011;65395;53.168;18.156;2024-03-02T07:38:22;38.10;;;20.40;;
76552;SDS011;65395;53.168;18.156;2024-03-02T07:40:49;36.60;;;20.80;;
76552;SDS011;65395;53.168;18.156;2024-03-02T07:43:17;35.70;;;21.00;;
76552;SDS011;65395;53.168;18.156;2024-03-02T07:45:45;36.70;;;20.10;;
76552;SDS011;65395;53.168;18.156;2024-03-02T07:48:13;41.00;;;22.90;;
76552;SDS011;65395;53.168;18.156;2024-03-02T07:50:41;36.60;;;20.80;;
76552;SDS011;65395;53.168;18.156;2024-03-02T07:53:09;38.60;;;20.90;;
76552;SDS011;65395;53.168;18.156;2024-03-02T07:55:36;37.70;;;21.20;;
76552;SDS011;65395;53.168;18.156;2024-03-02T07:58:03;36.20;;;21.40;;
76552;SDS011;65395;53.168;18.156;2024-03-02T08:00:31;41.80;;;22.70;;
76552;SDS011;65395;53.168;18.156;2024-03-02T08:02:57;37.10;;;21.40;;
76552;SDS011;65395;53.168;18.156;2024-03-02T08:05:25;41.70;;;23.00;;
76552;SDS011;65395;53.168;18.156;2024-03-02T08:07:53;41.20;;;22.40;;
76552;SDS011;65395;53.168;18.156;2024-03-02T08:10:20;38.10;;;21.70;;
76552;SDS011;65395;53.168;18.156;2024-03-02T08:12:47;40.00;;;21.60;;
76552;SDS011;65395;53.168;18.156;2024-03-02T08:15:14;36.80;;;20.90;;
76552;SDS011;65395;53.168;18.156;2024-03-02T08:17:41;39.40;;;20.80;;
76552;SDS011;65395;53.168;18.156;2024-03-02T08:20:14;36.00;;;20.20;;
76552;SDS011;65395;53.168;18.156;2024-03-02T08:22:41;37.30;;;21.30;;
76552;SDS011;65395;53.168;18.156;2024-03-02T08:25:09;37.80;;;21.50;;
76552;SDS011;65395;53.168;18.156;2024-03-02T08:27:36;37.20;;;21.30;;
76552;SDS011;65395;53.168;18.156;2024-03-02T08:30:03;36.30;;;20.20;;
76552;SDS011;65395;53.168;18.156;2024-03-02T08:32:33;36.70;;;20.30;;
76552;SDS011;65395;53.168;18.156;2024-03-02T08:34:59;36.00;;;19.90;;
76552;SDS011;65395;53.168;18.156;2024-03-02T08:37:26;37.90;;;21.80;;
76552;SDS011;65395;53.168;18.156;2024-03-02T08:39:54;35.50;;;20.80;;
76552;SDS011;65395;53.168;18.156;2024-03-02T08:42:21;38.30;;;19.90;;
76552;SDS011;65395;53.168;18.156;2024-03-02T08:44:49;38.50;;;21.20;;
76552;SDS011;65395;53.168;18.156;2024-03-02T08:47:16;36.30;;;20.30;;
76552;SDS011;65395;53.168;18.156;2024-03-02T08:49:43;34.60;;;20.00;;
76552;SDS011;65395;53.168;18.156;2024-03-02T08:52:10;35.60;;;20.00;;
76552;SDS011;65395;53.168;18.156;2024-03-02T08:54:37;36.10;;;20.40;;
76552;SDS011;65395;53.168;18.156;2024-03-02T08:57:04;38.20;;;19.70;;
76552;SDS011;65395;53.168;18.156;2024-03-02T08:59:32;33.70;;;20.40;;
76552;SDS011;65395;53.168;18.156;2024-03-02T09:01:59;32.10;;;19.10;;
76552;SDS011;65395;53.168;18.156;2024-03-02T09:04:26;35.60;;;19.30;;
76552;SDS011;65395;53.168;18.156;2024-03-02T09:06:55;32.60;;;19.60;;
76552;SDS011;65395;53.168;18.156;2024-03-02T09:09:22;33.60;;;20.40;;
76552;SDS011;65395;53.168;18.156;2024-03-02T09:11:49;35.40;;;19.70;;
76552;SDS011;65395;53.168;18.156;2024-03-02T09:14:15;38.00;;;21.80;;
76552;SDS011;65395;53.168;18.156;2024-03-02T09:16:42;35.80;;;20.00;;
76552;SDS011;65395;53.168;18.156;2024-03-02T09:19:09;37.40;;;21.30;;
76552;SDS011;65395;53.168;18.156;2024-03-02T09:21:37;36.60;;;20.80;;
76552;SDS011;65395;53.168;18.156;2024-03-02T09:24:04;37.50;;;20.60;;
76552;SDS011;65395;53.168;18.156;2024-03-02T09:26:33;35.10;;;20.60;;
76552;SDS011;65395;53.168;18.156;2024-03-02T09:29:00;37.80;;;21.90;;
76552;SDS011;65395;53.168;18.156;2024-03-02T09:31:26;34.80;;;20.50;;
76552;SDS011;65395;53.168;18.156;2024-03-02T09:33:53;35.50;;;20.90;;
76552;SDS011;65395;53.168;18.156;2024-03-02T09:36:20;35.90;;;21.10;;
76552;SDS011;65395;53.168;18.156;2024-03-02T09:38:48;38.50;;;21.50;;
76552;SDS011;65395;53.168;18.156;2024-03-02T09:41:15;35.70;;;20.60;;
76552;SDS011;65395;53.168;18.156;2024-03-02T09:43:42;36.80;;;20.70;;
76552;SDS011;65395;53.168;18.156;2024-03-02T09:46:10;32.20;;;20.30;;
76552;SDS011;65395;53.168;18.156;2024-03-02T09:48:37;35.10;;;19.90;;
76552;SDS011;65395;53.168;18.156;2024-03-02T09:51:05;31.80;;;19.80;;
76552;SDS011;65395;53.168;18.156;2024-03-02T09:53:33;39.40;;;21.40;;
76552;SDS011;65395;53.168;18.156;2024-03-02T09:56:00;32.90;;;19.40;;
76552;SDS011;65395;53.168;18.156;2024-03-02T09:58:27;34.50;;;20.50;;
76552;SDS011;65395;53.168;18.156;2024-03-02T10:00:55;36.20;;;21.30;;
76552;SDS011;65395;53.168;18.156;2024-03-02T10:03:23;31.20;;;20.10;;
76552;SDS011;65395;53.168;18.156;2024-03-02T10:05:51;36.80;;;19.60;;
76552;SDS011;65395;53.168;18.156;2024-03-02T10:08:18;33.50;;;20.10;;
76552;SDS011;65395;53.168;18.156;2024-03-02T10:10:45;32.90;;;19.20;;
76552;SDS011;65395;53.168;18.156;2024-03-02T10:13:12;34.30;;;20.30;;
76552;SDS011;65395;53.168;18.156;2024-03-02T10:15:40;32.50;;;19.90;;
76552;SDS011;65395;53.168;18.156;2024-03-02T10:18:09;35.40;;;20.40;;
76552;SDS011;65395;53.168;18.156;2024-03-02T10:20:38;33.50;;;19.90;;
76552;SDS011;65395;53.168;18.156;2024-03-02T10:23:09;34.20;;;20.00;;
76552;SDS011;65395;53.168;18.156;2024-03-02T10:25:37;34.30;;;19.30;;
76552;SDS011;65395;53.168;18.156;2024-03-02T10:28:04;32.00;;;19.70;;
76552;SDS011;65395;53.168;18.156;2024-03-02T10:30:32;31.10;;;19.50;;
76552;SDS011;65395;53.168;18.156;2024-03-02T10:33:02;34.00;;;20.10;;
76552;SDS011;65395;53.168;18.156;2024-03-02T10:35:29;32.00;;;19.00;;
76552;SDS011;65395;53.168;18.156;2024-03-02T10:37:59;31.30;;;19.30;;
76552;SDS011;65395;53.168;18.156;2024-03-02T10:40:27;31.90;;;19.80;;
76552;SDS011;65395;53.168;18.156;2024-03-02T10:42:54;33.10;;;20.10;;
76552;SDS011;65395;53.168;18.156;2024-03-02T10:45:22;33.50;;;19.60;;
76552;SDS011;65395;53.168;18.156;2024-03-02T10:47:50;31.90;;;19.60;;
76552;SDS011;65395;53.168;18.156;2024-03-02T10:50:17;34.00;;;20.40;;
76552;SDS011;65395;53.168;18.156;2024-03-02T10:52:45;31.40;;;19.60;;
76552;SDS011;65395;53.168;18.156;2024-03-02T10:55:12;31.70;;;19.60;;
76552;SDS011;65395;53.168;18.156;2024-03-02T10:57:41;31.60;;;19.60;;
76552;SDS011;65395;53.168;18.156;2024-03-02T11:00:18;31.20;;;19.10;;
76552;SDS011;65395;53.168;18.156;2024-03-02T11:02:51;32.70;;;19.10;;
76552;SDS011;65395;53.168;18.156;2024-03-02T11:05:26;33.50;;;20.40;;
76552;SDS011;65395;53.168;18.156;2024-03-02T11:07:56;32.70;;;19.90;;
76552;SDS011;65395;53.168;18.156;2024-03-02T11:10:36;29.80;;;18.90;;
76552;SDS011;65395;53.168;18.156;2024-03-02T11:13:09;36.00;;;19.80;;
76552;SDS011;65395;53.168;18.156;2024-03-02T11:15:39;31.70;;;19.60;;
76552;SDS011;65395;53.168;18.156;2024-03-02T11:18:10;34.10;;;20.10;;
76552;SDS011;65395;53.168;18.156;2024-03-02T11:20:38;31.90;;;19.70;;
76552;SDS011;65395;53.168;18.156;2024-03-02T11:23:06;33.50;;;19.50;;
76552;SDS011;65395;53.168;18.156;2024-03-02T11:25:34;30.00;;;19.60;;
76552;SDS011;65395;53.168;18.156;2024-03-02T11:28:02;34.90;;;19.90;;
76552;SDS011;65395;53.168;18.156;2024-03-02T11:30:48;32.60;;;20.40;;
76552;SDS011;65395;53.168;18.156;2024-03-02T11:33:18;33.90;;;19.60;;
76552;SDS011;65395;53.168;18.156;2024-03-02T11:35:50;32.30;;;19.20;;
76552;SDS011;65395;53.168;18.156;2024-03-02T11:38:17;33.50;;;19.90;;
76552;SDS011;65395;53.168;18.156;2024-03-02T11:40:45;29.40;;;19.30;;
76552;SDS011;65395;53.168;18.156;2024-03-02T11:43:12;32.80;;;18.80;;
76552;SDS011;65395;53.168;18.156;2024-03-02T11:45:41;32.90;;;19.50;;
76552;SDS011;65395;53.168;18.156;2024-03-02T11:48:11;31.20;;;19.70;;
76552;SDS011;65395;53.168;18.156;2024-03-02T11:50:43;30.80;;;19.30;;
76552;SDS011;65395;53.168;18.156;2024-03-02T11:53:15;34.10;;;20.40;;
76552;SDS011;65395;53.168;18.156;2024-03-02T11:55:43;29.00;;;18.60;;
76552;SDS011;65395;53.168;18.156;2024-03-02T11:58:15;33.00;;;19.60;;
76552;SDS011;65395;53.168;18.156;2024-03-02T12:00:53;31.90;;;19.60;;
76552;SDS011;65395;53.168;18.156;2024-03-02T12:03:22;32.10;;;19.50;;
76552;SDS011;65395;53.168;18.156;2024-03-02T12:05:53;34.60;;;19.90;;
76552;SDS011;65395;53.168;18.156;2024-03-02T12:08:20;29.70;;;18.90;;
76552;SDS011;65395;53.168;18.156;2024-03-02T12:13:26;33.40;;;20.30;;
76552;SDS011;65395;53.168;18.156;2024-03-02T12:15:54;33.10;;;20.40;;
76552;SDS011;65395;53.168;18.156;2024-03-02T12:18:23;32.10;;;19.60;;
76552;SDS011;65395;53.168;18.156;2024-03-02T12:20:51;35.50;;;20.60;;
76552;SDS011;65395;53.168;18.156;2024-03-02T12:23:19;40.60;;;24.00;;
76552;SDS011;65395;53.168;18.156;2024-03-02T12:25:46;41.90;;;24.50;;
76552;SDS011;65395;53.168;18.156;2024-03-02T12:28:13;46.90;;;27.40;;
76552;SDS011;65395;53.168;18.156;2024-03-02T12:30:40;41.10;;;26.50;;
76552;SDS011;65395;53.168;18.156;2024-03-02T12:33:07;40.50;;;24.30;;
76552;SDS011;65395;53.168;18.156;2024-03-02T12:35:35;47.10;;;26.80;;
76552;SDS011;65395;53.168;18.156;2024-03-02T12:38:02;45.70;;;26.90;;
76552;SDS011;65395;53.168;18.156;2024-03-02T12:40:30;43.20;;;25.90;;
76552;SDS011;65395;53.168;18.156;2024-03-02T12:42:58;45.20;;;26.70;;
76552;SDS011;65395;53.168;18.156;2024-03-02T12:45:25;47.50;;;26.40;;
76552;SDS011;65395;53.168;18.156;2024-03-02T12:47:52;46.20;;;26.60;;
76552;SDS011;65395;53.168;18.156;2024-03-02T12:50:20;43.70;;;25.80;;
76552;SDS011;65395;53.168;18.156;2024-03-02T12:52:51;45.50;;;26.90;;
76552;SDS011;65395;53.168;18.156;2024-03-02T12:55:20;46.70;;;27.50;;
76552;SDS011;65395;53.168;18.156;2024-03-02T12:57:49;46.50;;;27.60;;
76552;SDS011;65395;53.168;18.156;2024-03-02T13:00:18;49.10;;;28.80;;
76552;SDS011;65395;53.168;18.156;2024-03-02T13:02:46;48.20;;;27.90;;
76552;SDS011;65395;53.168;18.156;2024-03-02T13:05:15;49.90;;;27.90;;
76552;SDS011;65395;53.168;18.156;2024-03-02T13:07:41;47.90;;;27.20;;
76552;SDS011;65395;53.168;18.156;2024-03-02T13:10:09;50.70;;;28.50;;
76552;SDS011;65395;53.168;18.156;2024-03-02T13:12:36;48.40;;;28.80;;
76552;SDS011;65395;53.168;18.156;2024-03-02T13:15:03;50.30;;;27.80;;
76552;SDS011;65395;53.168;18.156;2024-03-02T13:17:34;49.30;;;29.60;;
76552;SDS011;65395;53.168;18.156;2024-03-02T13:20:02;49.20;;;28.00;;
76552;SDS011;65395;53.168;18.156;2024-03-02T13:22:30;48.00;;;28.00;;
76552;SDS011;65395;53.168;18.156;2024-03-02T13:24:57;44.90;;;26.80;;
76552;SDS011;65395;53.168;18.156;2024-03-02T13:27:26;50.10;;;29.20;;
76552;SDS011;65395;53.168;18.156;2024-03-02T13:29:53;45.50;;;26.10;;
76552;SDS011;65395;53.168;18.156;2024-03-02T13:32:20;53.40;;;29.20;;
76552;SDS011;65395;53.168;18.156;2024-03-02T13:34:50;49.10;;;28.70;;
76552;SDS011;65395;53.168;18.156;2024-03-02T13:37:17;53.20;;;29.30;;
76552;SDS011;65395;53.168;18.156;2024-03-02T13:39:44;47.30;;;27.40;;
76552;SDS011;65395;53.168;18.156;2024-03-02T13:42:11;50.00;;;28.80;;
76552;SDS011;65395;53.168;18.156;2024-03-02T13:44:42;50.60;;;27.50;;
76552;SDS011;65395;53.168;18.156;2024-03-02T13:47:12;50.20;;;28.30;;
76552;SDS011;65395;53.168;18.156;2024-03-02T13:49:39;53.20;;;28.40;;
76552;SDS011;65395;53.168;18.156;2024-03-02T13:52:09;46.40;;;27.10;;
76552;SDS011;65395;53.168;18.156;2024-03-02T13:54:37;46.90;;;27.00;;
76552;SDS011;65395;53.168;18.156;2024-03-02T13:57:05;49.80;;;27.70;;
76552;SDS011;65395;53.168;18.156;2024-03-02T13:59:34;50.90;;;28.40;;
76552;SDS011;65395;53.168;18.156;2024-03-02T14:02:02;44.60;;;25.60;;
76552;SDS011;65395;53.168;18.156;2024-03-02T14:04:31;49.00;;;27.00;;
76552;SDS011;65395;53.168;18.156;2024-03-02T14:06:59;52.20;;;28.10;;
76552;SDS011;65395;53.168;18.156;2024-03-02T14:09:28;51.30;;;28.00;;
76552;SDS011;65395;53.168;18.156;2024-03-02T14:11:56;48.00;;;27.20;;
76552;SDS011;65395;53.168;18.156;2024-03-02T14:14:23;50.30;;;27.10;;
76552;SDS011;65395;53.168;18.156;2024-03-02T14:16:51;47.90;;;27.30;;
76552;SDS011;65395;53.168;18.156;2024-03-02T14:19:19;47.70;;;26.40;;
76552;SDS011;65395;53.168;18.156;2024-03-02T14:21:47;48.80;;;25.50;;
76552;SDS011;65395;53.168;18.156;2024-03-02T14:24:15;50.50;;;28.10;;